Aérodrome :
LOGIN :

S'inscrire | Disclaimer

   EN    FR    IT 

 










Légende :    VFR   VFR Marginal   IFR   IFR Intensif   IFR Très Intensif
Visi : 
Plafond : 
>= 8 km
>= 3000ft
5 à 8 km
1000 à 3000 ft
1500m à 5 km
500 à 1000 ft
800 à 1500m
200 à 500 ft
< 800m
< 200 ft
Symboles :   Orages  Brouillard  Fortes neiges  Fortes précipitations  Vent > 20 kt
SIGMETs :   Divers  Orages  Givrage  Turbulence  Onde Orograph.  Cendres Volcan.






- Altitude de l'aérodrome : 463 ft
- Code IATA : SZY
- AEROPORT FERMÉ.


EPSY - Szczytno

DERNIER METAR :
  • 240630Z 05005KT CAVOK 04/M01 Q1009

METARs EXPIRÉS :
  • 240600Z 04005KT CAVOK 03/M01 Q1009
  • 240530Z 04004KT CAVOK 02/M02 Q1010
  • 240500Z 04005KT CAVOK 02/M02 Q1010
  • 240430Z 05004KT 020V080 CAVOK 01/M03 Q1010
  • 240400Z 05005KT CAVOK 01/M03 Q1011
  • 240330Z 05005KT 030V090 CAVOK 01/M03 Q1011
  • 240300Z 05005KT 020V100 CAVOK 01/M03 Q1011
  • 240230Z 04006KT 020V090 CAVOK 02/M03 Q1012

TAF TAF EPSY
Valide du 24 à 06h jusqu'au 24 à 15h UTC


240530Z 2406/2415 05008KT CAVOK
BECMG 2406/2408 BKN020
BECMG 2409/2411 -RA OVC014
PROB40 2411/2415 4000 -RA BR OVC008



MET'MAP, la Météo Aéronautique d'un coup d'oeil ! - Copyright ORBIFLY Décembre 2007 - Disclaimer

ORBIFLY MET'MAP TEAM :

Programmation & Développement : Alexandra Zaïnal
Sur une idée originale de : Baudouin d'Aumeries
Soutien technique & logistique : Manuel Goepfert
Assistance : Marc-Olivier Méhu




SOURCES & CREDITS :

   NOAA